Santa Ana, CA (92707)

1:03 AM PDT on September 01, 2014 (GMT -0700)
Rancho San Joaquin | Change Station
CLOSE
Current Station
Personal Weather Station
Location: Irvine, CA
Elevation: 72 ft
Nearby Weather Stations
Active Advisory: Beach Hazard Statement

Elev 72 ft 33.66 °N, 117.83 °W | Updated 11 seconds ago

Overcast
Overcast
72.0 °F
Feels Like 71 °F
N
0.0
Wind Variable Wind from SE
Gusts 3.0 mph

Today
High -- | Low -- °F
--% Chance of Precip.
Yesterday
High -- | Low -- °F
Precip. -- in
6:25 AM 7:16 PM
Waxing Crescent, 38% visible
Pressure 29.81 in
Visibility 10.0 miles
Clouds Overcast 1700 ft
Heat Index 71 °F
Dew Point 67 °F
Humidity 84%
Rainfall 0.00 in
Snow Depth Not available.
UV 0 out of 12
Pollen 8.10 out of 12
Ozone Good
Flu Activity Not available.
METAR KSNA 010753Z AUTO 15006KT 10SM OVC017 23/18 A2981 RMK AO2 SLP094 T02330178 402830217 TSNO

More Conditions Fewer Conditions

Pressure 29.81 in
Visibility 10.0 miles
Clouds Overcast 1700 ft
Heat Index 71 °F
Dew Point 67 °F
Humidity 84%
Rainfall 0.00 in
Snow Depth Not available.
UV 0 out of 12
Pollen 8.10 out of 12
Ozone Good
Flu Activity Not available.
METAR KSNA 010753Z AUTO 15006KT 10SM OVC017 23/18 A2981 RMK AO2 SLP094 T02330178 402830217 TSNO

More Conditions Fewer Conditions

10-Day Weather Forecast

Almanac

Astronomy

Sep. 01, 2014 Rise Set
Actual Time 6:25 AM PDT 7:16 PM PDT
Civil Twilight 5:59 AM PDT 7:42 PM PDT
Nautical Twilight 5:29 AM PDT 8:12 PM PDT
Astronomical Twilight 4:59 AM PDT 8:43 PM PDT
Moon 12:56 PM PDT 11:41 PM PDT
Length of Visible Light 13h 42m
Length of Day
12h 51m
Tomorrow will be 2m 0s shorter.
Waxing Crescent, 38% of the Moon is Illuminated
Today
Waxing Crescent
Sep 2
First Quarter
Sep 8
Full
Sep 15
Last Quarter
Sep 24
New

Today's Extremes

State Highs State Lows

Community

WunderPhotos

Upload Photos

1,749,175 photos uploaded!

Nearby

Air Quality

  Air Quality AQ Index Pollutant
Current Good
OZONE
Monday Good
PM10
Monday Good
OZONE
Monday Good
CO
Monday Good
NO2

Snow Depth

Station Depth Elevation
Leavitt Lake 0 in 9400 ft
Leavitt Meadows 1 in 7200 ft
Summit Meadow 1 in 9122 ft
Monitor Pass 0 in 8350 ft
Blue Lakes 0 in 8000 ft

Earthquake Activity

City Distance Mag. Time & Date
Malibu, California 70 miles 2.5 8:11 AM PDT
2014-08-30
Minimum magnitude displayed is 2.5.

Coastal Water Temperatures

Place Temperature
Santa Monica Pier 73.0 °F
Los Angeles, CA 68.0 °F
La Jolla, CA 72.0 °F

Nearby Weather Stations